Time;durP1;ratioP1;P1;durP2;ratioP2;P2;SDS_P1;SDS_P2;PMS_P1;PMS_P2;Temp;Humidity;BMP_temperature;BMP_pressure;BME280_temperature;BME280_humidity;BME280_pressure;Samples;Min_cycle;Max_cycle;Signal;HPM_P1;HPM_P2
2023/10/05 00:02:05;;;;;;;2.13;1.80;;;;;;;10.59;98.24;154078.22;4999811;28;20793;-80
2023/10/05 00:04:40;;;;;;;2.10;1.67;;;;;;;10.53;97.80;154063.97;5002835;28;20470;-80
2023/10/05 00:07:07;;;;;;;2.37;1.60;;;;;;;10.48;98.22;154049.72;5002262;28;20761;-80
2023/10/05 00:09:34;;;;;;;2.83;1.70;;;;;;;10.45;99.11;154043.25;5008963;28;20436;-80
2023/10/05 00:12:04;;;;;;;2.87;1.60;;;;;;;10.43;99.71;154036.78;5006377;28;20432;-80
2023/10/05 00:14:30;;;;;;;2.17;1.67;;;;;;;10.41;99.66;154032.88;5013583;28;20428;-80
2023/10/05 00:17:00;;;;;;;3.60;1.73;;;;;;;10.42;99.44;154035.47;5007738;28;20441;-80
2023/10/05 00:19:29;;;;;;;3.43;2.70;;;;;;;10.44;99.08;154039.34;5008002;28;20973;-80
2023/10/05 00:21:57;;;;;;;3.60;1.83;;;;;;;10.44;99.39;154040.63;5003898;28;20454;-80
2023/10/05 00:24:29;;;;;;;2.80;2.03;;;;;;;10.42;98.99;154035.47;5010053;28;20465;-80
2023/10/05 00:26:58;;;;;;;2.00;1.63;;;;;;;10.40;98.90;154030.31;5026611;28;20423;-80
2023/10/05 00:29:28;;;;;;;3.20;1.70;;;;;;;10.43;98.96;154038.09;5008219;28;20932;-80
2023/10/05 00:31:58;;;;;;;2.20;1.30;;;;;;;10.44;98.88;154039.34;4990392;28;20492;-80
2023/10/05 00:34:28;;;;;;;2.73;2.00;;;;;;;10.37;98.76;154022.53;5027659;28;20434;-80
2023/10/05 00:36:57;;;;;;;3.40;2.20;;;;;;;10.34;99.03;154014.75;5028094;28;20996;-80
2023/10/05 00:39:24;;;;;;;2.30;1.87;;;;;;;10.32;99.58;154009.59;5010017;28;20915;-80
2023/10/05 00:41:59;;;;;;;2.37;1.90;;;;;;;10.28;99.55;154000.50;5010384;28;20460;-80
2023/10/05 00:44:28;;;;;;;2.90;2.53;;;;;;;10.29;99.94;154001.81;4991360;28;20456;-80
2023/10/05 00:46:55;;;;;;;6.60;1.97;;;;;;;10.26;99.95;153995.34;4994340;28;20463;-80
2023/10/05 00:49:27;;;;;;;3.30;1.87;;;;;;;10.24;100.00;153988.88;4989082;28;20497;-80
2023/10/05 00:52:07;;;;;;;4.80;2.43;;;;;;;10.21;100.00;153982.41;5018067;28;20444;-80
2023/10/05 00:54:34;;;;;;;3.90;1.67;;;;;;;10.20;100.00;153978.50;5006341;28;20789;-80
2023/10/05 00:57:05;;;;;;;2.87;1.97;;;;;;;10.20;100.00;153978.50;5006806;28;20545;-80
2023/10/05 00:59:32;;;;;;;2.73;1.80;;;;;;;10.22;100.00;153984.97;5012326;28;20450;-80
2023/10/05 01:02:05;;;;;;;4.00;2.10;;;;;;;10.21;100.00;153981.09;5003875;28;20443;-80
2023/10/05 01:04:52;;;;;;;1.77;1.60;;;;;;;10.20;100.00;153978.50;4990988;28;20620;-80
2023/10/05 01:07:29;;;;;;;2.77;1.90;;;;;;;10.21;100.00;153981.09;5002323;28;20471;-80
2023/10/05 01:10:22;;;;;;;2.87;2.10;;;;;;;10.20;100.00;153978.50;5007832;28;20477;-80
2023/10/05 01:12:48;;;;;;;4.83;3.07;;;;;;;10.19;100.00;153975.94;4996164;28;20866;-80
2023/10/05 01:15:19;;;;;;;4.27;2.20;;;;;;;10.17;100.00;153972.03;4990095;28;20524;-80
2023/10/05 01:17:47;;;;;;;3.57;2.17;;;;;;;10.16;100.00;153968.16;5005049;28;20800;-80
2023/10/05 01:20:22;;;;;;;2.17;1.93;;;;;;;10.13;100.00;153960.41;4989626;28;20562;-80
2023/10/05 01:22:54;;;;;;;2.53;2.20;;;;;;;10.12;100.00;153959.09;5006023;28;20442;-80
2023/10/05 01:25:24;;;;;;;3.17;2.30;;;;;;;10.10;100.00;153952.56;4991201;28;20841;-80
2023/10/05 01:27:51;;;;;;;2.30;1.87;;;;;;;10.05;100.00;153939.63;5001417;28;20480;-80
2023/10/05 01:30:18;;;;;;;2.50;2.30;;;;;;;10.05;100.00;153939.63;5006397;28;20452;-81
2023/10/05 01:32:47;;;;;;;2.77;2.50;;;;;;;10.02;100.00;153931.88;5001691;28;20636;-80
2023/10/05 01:35:17;;;;;;;3.20;1.97;;;;;;;10.01;100.00;153930.56;4996576;28;20540;-80
2023/10/05 01:37:45;;;;;;;3.43;2.50;;;;;;;10.01;100.00;153930.56;5004624;28;20459;-80
2023/10/05 01:40:14;;;;;;;3.30;2.60;;;;;;;9.99;100.00;153924.09;5004197;28;20468;-80
2023/10/05 01:42:45;;;;;;;6.27;3.83;;;;;;;10.02;100.00;153931.88;4973916;28;20957;-80
2023/10/05 01:45:15;;;;;;;4.30;2.90;;;;;;;9.98;100.00;153922.78;5004704;28;20606;-80
2023/10/05 01:47:43;;;;;;;4.93;3.20;;;;;;;9.95;100.00;153915.06;4989172;28;20963;-80
2023/10/05 01:50:16;;;;;;;3.03;2.33;;;;;;;9.92;100.00;153907.28;4990133;28;20510;-80
2023/10/05 01:52:45;;;;;;;3.87;2.50;;;;;;;9.92;100.00;153906.00;5007803;28;20441;-80
2023/10/05 01:55:14;;;;;;;4.00;3.13;;;;;;;9.92;100.00;153906.00;5004184;28;20528;-80
2023/10/05 01:57:42;;;;;;;3.20;2.90;;;;;;;9.87;100.00;153894.34;4973748;28;20831;-80
2023/10/05 02:00:19;;;;;;;3.67;3.00;;;;;;;9.85;100.00;153887.88;5002146;28;21040;-80
2023/10/05 02:02:46;;;;;;;3.23;2.80;;;;;;;9.81;100.00;153878.81;5009059;28;20991;-80
2023/10/05 02:05:14;;;;;;;4.50;2.77;;;;;;;9.80;100.00;153877.50;4985938;28;20842;-80
2023/10/05 02:07:41;;;;;;;7.50;3.20;;;;;;;9.80;100.00;153877.50;4993831;28;20442;-80
2023/10/05 02:10:13;;;;;;;4.07;3.30;;;;;;;9.80;100.00;153877.50;5005059;28;20523;-80
2023/10/05 02:12:40;;;;;;;4.30;2.90;;;;;;;9.77;100.00;153869.75;4997698;28;20456;-80
2023/10/05 02:15:13;;;;;;;3.00;2.70;;;;;;;9.74;100.00;153861.97;4975305;28;20957;-80
2023/10/05 02:17:43;;;;;;;3.90;2.87;;;;;;;9.72;100.00;153856.81;4972816;28;20538;-80
2023/10/05 02:20:25;;;;;;;5.67;2.70;;;;;;;9.71;100.00;153854.25;4989684;28;20461;-80
2023/10/05 02:22:54;;;;;;;3.50;2.70;;;;;;;9.67;100.00;153843.88;5009223;28;20537;-80
2023/10/05 02:25:25;;;;;;;4.63;2.90;;;;;;;9.67;100.00;153843.88;5004857;28;20483;-80
2023/10/05 02:27:52;;;;;;;5.47;3.53;;;;;;;9.67;100.00;153843.88;5006202;28;20452;-80
2023/10/05 02:30:27;;;;;;;3.67;2.80;;;;;;;9.66;100.00;153841.25;5004729;28;20573;-80
2023/10/05 02:32:58;;;;;;;3.97;3.10;;;;;;;9.63;100.00;153833.53;4990680;28;20464;-80
2023/10/05 02:35:30;;;;;;;4.50;2.90;;;;;;;9.58;100.00;153820.56;5006308;28;20441;-80
2023/10/05 02:37:58;;;;;;;5.90;3.20;;;;;;;9.52;100.00;153805.06;5005475;28;20456;-80
2023/10/05 02:40:34;;;;;;;4.13;2.50;;;;;;;9.47;100.00;153792.13;4967048;28;20899;-80
2023/10/05 02:43:05;;;;;;;5.37;3.30;;;;;;;9.45;100.00;153786.94;4990634;28;20511;-80
2023/10/05 02:45:32;;;;;;;3.50;3.20;;;;;;;9.43;100.00;153780.47;4971706;28;20535;-80
2023/10/05 02:48:05;;;;;;;6.47;2.87;;;;;;;9.41;100.00;153776.59;4961588;28;20456;-80
2023/10/05 02:50:37;;;;;;;4.53;2.97;;;;;;;9.39;100.00;153771.44;4989356;28;20531;-80
2023/10/05 02:53:06;;;;;;;3.80;2.87;;;;;;;9.39;100.00;153771.44;5009196;28;20448;-80
2023/10/05 02:55:36;;;;;;;4.47;3.83;;;;;;;9.37;100.00;153764.97;5011288;28;20812;-80
2023/10/05 02:58:03;;;;;;;7.33;3.00;;;;;;;9.36;100.00;153763.66;4988289;28;20540;-80
2023/10/05 03:00:29;;;;;;;3.23;2.73;;;;;;;9.35;100.00;153761.06;4974663;28;20559;-80
2023/10/05 03:02:56;;;;;;;4.20;3.43;;;;;;;9.36;100.00;153762.38;4996332;28;20451;-80
2023/10/05 03:05:30;;;;;;;4.37;3.23;;;;;;;9.38;100.00;153767.53;5000890;28;20481;-80
2023/10/05 03:07:58;;;;;;;4.70;4.10;;;;;;;9.39;100.00;153771.44;4978037;28;20447;-80
2023/10/05 03:10:26;;;;;;;4.03;3.20;;;;;;;9.44;100.00;153784.38;4972585;28;20473;-80
2023/10/05 03:12:53;;;;;;;3.53;2.87;;;;;;;9.48;100.00;153794.69;5005163;28;20447;-81
2023/10/05 03:15:23;;;;;;;3.30;3.00;;;;;;;9.50;100.00;153799.91;5002922;28;20448;-80
2023/10/05 03:17:51;;;;;;;3.90;2.50;;;;;;;9.52;100.00;153805.06;5004840;28;20445;-80
2023/10/05 03:20:21;;;;;;;4.10;3.10;;;;;;;9.55;100.00;153812.84;4985400;28;20539;-81
2023/10/05 03:22:49;;;;;;;3.73;2.60;;;;;;;9.58;100.00;153820.56;5011993;28;20795;-81
2023/10/05 03:25:19;;;;;;;3.20;2.50;;;;;;;9.59;100.00;153823.16;5004747;28;20491;-80
2023/10/05 03:27:46;;;;;;;5.00;2.90;;;;;;;9.62;100.00;153829.63;4981295;28;20440;-80
2023/10/05 03:30:14;;;;;;;3.57;2.67;;;;;;;9.63;100.00;153833.53;5009800;28;20499;-80
2023/10/05 03:32:41;;;;;;;4.37;2.33;;;;;;;9.65;100.00;153838.72;4974069;28;20478;-80
2023/10/05 03:35:09;;;;;;;3.47;3.00;;;;;;;9.67;100.00;153842.56;5008258;28;20457;-80
2023/10/05 03:37:39;;;;;;;3.20;2.53;;;;;;;9.69;100.00;153849.03;4984867;28;20977;-80
2023/10/05 03:40:19;;;;;;;5.57;3.57;;;;;;;9.68;100.00;153845.16;4978455;28;20471;-80
2023/10/05 03:42:47;;;;;;;4.00;2.83;;;;;;;9.66;100.00;153841.25;4991321;28;20461;-81
2023/10/05 03:45:17;;;;;;;4.20;2.80;;;;;;;9.65;100.00;153838.72;5008021;28;20818;-80
2023/10/05 03:47:45;;;;;;;2.97;2.57;;;;;;;9.65;100.00;153837.41;5005119;28;20453;-80
2023/10/05 03:50:16;;;;;;;3.90;3.00;;;;;;;9.63;100.00;153833.53;4976384;28;20808;-80
2023/10/05 03:52:44;;;;;;;3.33;3.03;;;;;;;9.61;100.00;153828.34;5004864;28;20564;-81
2023/10/05 03:55:13;;;;;;;4.60;2.80;;;;;;;9.58;100.00;153820.56;4992289;28;20486;-80
2023/10/05 03:57:42;;;;;;;3.60;2.53;;;;;;;9.55;100.00;153812.84;5004651;28;20425;-80
2023/10/05 04:00:23;;;;;;;3.83;2.90;;;;;;;9.53;100.00;153807.63;5017758;28;20448;-80
2023/10/05 04:02:50;;;;;;;3.60;3.20;;;;;;;9.52;100.00;153805.06;4996396;28;20449;-80
2023/10/05 04:05:20;;;;;;;3.20;2.80;;;;;;;9.50;100.00;153799.91;4996053;28;20919;-80
2023/10/05 04:07:49;;;;;;;4.00;2.70;;;;;;;9.49;100.00;153796.00;5029333;28;20529;-80
2023/10/05 04:10:23;;;;;;;4.27;3.17;;;;;;;9.48;100.00;153794.69;4973586;28;20489;-80
2023/10/05 04:12:51;;;;;;;5.43;3.03;;;;;;;9.49;100.00;153796.00;4998131;28;20433;-80
2023/10/05 04:15:20;;;;;;;5.57;3.50;;;;;;;9.48;100.00;153793.41;5007929;28;20483;-81
2023/10/05 04:17:49;;;;;;;4.70;3.00;;;;;;;9.43;100.00;153781.75;5008890;28;20453;-81
2023/10/05 04:20:19;;;;;;;5.83;4.07;;;;;;;9.40;100.00;153772.75;5004642;28;20466;-80
2023/10/05 04:22:49;;;;;;;3.33;3.03;;;;;;;9.37;100.00;153766.22;5009220;28;20896;-80
2023/10/05 04:25:17;;;;;;;4.53;3.50;;;;;;;9.34;100.00;153758.50;4974937;28;20517;-80
2023/10/05 04:27:46;;;;;;;5.70;3.63;;;;;;;9.37;100.00;153764.97;5007634;28;20445;-81
2023/10/05 04:30:17;;;;;;;5.30;3.80;;;;;;;9.36;100.00;153763.66;5001941;28;20454;-80
2023/10/05 04:32:44;;;;;;;4.63;3.70;;;;;;;9.37;100.00;153766.22;5004414;28;20573;-80
2023/10/05 04:35:20;;;;;;;5.00;4.00;;;;;;;9.37;100.00;153764.97;4988590;28;20992;-80
2023/10/05 04:37:47;;;;;;;4.03;3.27;;;;;;;9.37;100.00;153764.97;5006598;28;20468;-80
2023/10/05 04:40:15;;;;;;;3.40;3.10;;;;;;;9.38;100.00;153767.53;5006086;28;20519;-80
2023/10/05 04:42:43;;;;;;;5.10;3.27;;;;;;;9.38;100.00;153767.53;5005815;28;20548;-80
2023/10/05 04:45:14;;;;;;;4.20;3.60;;;;;;;9.37;100.00;153764.97;4996623;28;20476;-80
2023/10/05 04:47:40;;;;;;;4.10;2.83;;;;;;;9.37;100.00;153764.97;5003663;28;20548;-81
2023/10/05 04:50:07;;;;;;;6.80;3.60;;;;;;;9.37;100.00;153766.22;5009345;28;20450;-80
2023/10/05 04:52:37;;;;;;;3.83;3.33;;;;;;;9.39;100.00;153771.44;4989816;28;20447;-80
2023/10/05 04:55:18;;;;;;;5.03;3.50;;;;;;;9.38;100.00;153768.84;4989837;28;20445;-80
2023/10/05 04:58:11;;;;;;;6.27;3.63;;;;;;;9.38;100.00;153768.84;4986390;28;20447;-80
2023/10/05 05:01:14;;;;;;;4.10;3.10;;;;;;;9.38;100.00;153768.84;5001034;28;20552;-81
2023/10/05 05:03:48;;;;;;;5.67;3.90;;;;;;;9.39;100.00;153771.44;4993101;28;20835;-80
2023/10/05 05:06:14;;;;;;;4.50;3.87;;;;;;;9.40;100.00;153774.00;4995822;28;20473;-81
2023/10/05 05:08:41;;;;;;;3.97;3.43;;;;;;;9.39;100.00;153771.44;4995086;28;20533;-80
2023/10/05 05:11:11;;;;;;;5.53;3.47;;;;;;;9.40;100.00;153774.00;4994907;28;20466;-81
2023/10/05 05:13:40;;;;;;;5.87;3.87;;;;;;;9.40;100.00;153774.00;4993637;28;20449;-80
2023/10/05 05:16:07;;;;;;;4.70;3.50;;;;;;;9.39;100.00;153771.44;4992638;28;20460;-80
2023/10/05 05:18:37;;;;;;;4.43;3.67;;;;;;;9.40;100.00;153772.75;4995641;28;20446;-80
2023/10/05 05:21:07;;;;;;;4.40;3.67;;;;;;;9.39;100.00;153771.44;4995225;28;20456;-81
2023/10/05 05:23:35;;;;;;;4.60;4.10;;;;;;;9.39;100.00;153770.13;4981876;28;20461;-80
2023/10/05 05:26:03;;;;;;;4.77;3.70;;;;;;;9.37;100.00;153764.97;4995264;28;20497;-80
2023/10/05 05:28:30;;;;;;;4.90;4.10;;;;;;;9.35;100.00;153761.06;4995378;28;20992;-80
2023/10/05 05:31:06;;;;;;;5.07;4.00;;;;;;;9.35;100.00;153761.06;4993892;28;20983;-81
2023/10/05 05:33:33;;;;;;;5.00;4.23;;;;;;;9.36;100.00;153763.66;4978676;28;20450;-82
2023/10/05 05:36:05;;;;;;;5.10;3.43;;;;;;;9.37;100.00;153764.97;4993915;28;21166;-81
2023/10/05 05:38:33;;;;;;;5.60;3.40;;;;;;;9.34;100.00;153758.50;4995150;28;20457;-81
2023/10/05 05:40:59;;;;;;;3.47;3.17;;;;;;;9.32;100.00;153753.31;4995266;28;20737;-79
2023/10/05 05:43:29;;;;;;;5.70;3.93;;;;;;;9.31;100.00;153750.75;4978256;28;20503;-80
2023/10/05 05:45:55;;;;;;;4.17;3.77;;;;;;;9.30;100.00;153746.84;4992308;28;20799;-80
2023/10/05 05:48:24;;;;;;;6.50;3.60;;;;;;;9.30;100.00;153748.13;4974352;28;20820;-80
2023/10/05 05:51:24;;;;;;;3.80;3.40;;;;;;;9.29;100.00;153745.59;4978886;28;20460;-80
2023/10/05 05:53:52;;;;;;;9.00;4.00;;;;;;;9.30;100.00;153746.84;4922329;29;20453;-80
2023/10/05 05:56:19;;;;;;;6.10;3.90;;;;;;;9.32;100.00;153753.31;4964424;28;20465;-80
2023/10/05 05:58:46;;;;;;;5.73;3.80;;;;;;;9.33;100.00;153755.91;4974755;28;20470;-80
2023/10/05 06:01:15;;;;;;;4.40;3.57;;;;;;;9.34;100.00;153757.22;4960345;28;20805;-79
2023/10/05 06:03:44;;;;;;;3.50;3.17;;;;;;;9.34;100.00;153758.50;4977340;28;20458;-80
2023/10/05 06:06:11;;;;;;;5.40;4.00;;;;;;;9.37;100.00;153766.22;4960842;28;20486;-80
2023/10/05 06:08:40;;;;;;;5.30;4.07;;;;;;;9.40;100.00;153774.00;4958179;28;20459;-80
2023/10/05 06:11:08;;;;;;;5.27;4.43;;;;;;;9.46;100.00;153789.53;4978420;28;20464;-80
2023/10/05 06:13:37;;;;;;;5.00;3.63;;;;;;;9.49;100.00;153796.00;4975087;28;20457;-80
2023/10/05 06:16:06;;;;;;;4.10;3.70;;;;;;;9.49;100.00;153797.31;4957955;28;20454;-81
2023/10/05 06:18:32;;;;;;;5.60;4.20;;;;;;;9.52;100.00;153805.06;4975030;28;20992;-80
2023/10/05 06:21:00;;;;;;;5.73;4.67;;;;;;;9.53;100.00;153806.38;4975987;28;20456;-80
2023/10/05 06:23:28;;;;;;;4.77;3.63;;;;;;;9.57;100.00;153816.69;4977283;28;20485;-80
2023/10/05 06:25:54;;;;;;;7.13;4.40;;;;;;;9.59;100.00;153823.16;4975840;28;20580;-80
2023/10/05 06:28:22;;;;;;;4.93;4.40;;;;;;;9.66;100.00;153841.25;4977561;28;20538;-80
2023/10/05 06:30:49;;;;;;;5.03;3.90;;;;;;;9.70;100.00;153850.34;4975275;28;20475;-80
2023/10/05 06:33:16;;;;;;;4.80;4.20;;;;;;;9.72;100.00;153856.81;4959038;28;20458;-80
2023/10/05 06:35:43;;;;;;;6.07;4.50;;;;;;;9.73;100.00;153859.41;4975065;28;20475;-80
2023/10/05 06:38:11;;;;;;;5.60;4.40;;;;;;;9.74;100.00;153861.97;4974424;28;21028;-80
2023/10/05 06:40:38;;;;;;;7.30;4.53;;;;;;;9.80;100.00;153877.50;4977807;28;20458;-80
2023/10/05 06:43:05;;;;;;;4.93;4.00;;;;;;;9.84;100.00;153886.59;4976516;28;20548;-80
2023/10/05 06:45:32;;;;;;;4.30;3.90;;;;;;;9.87;100.00;153893.06;4974747;28;20485;-80
2023/10/05 06:47:59;;;;;;;4.70;4.07;;;;;;;9.92;100.00;153907.28;4974821;28;20456;-80
2023/10/05 06:50:25;;;;;;;5.83;4.33;;;;;;;9.93;100.00;153908.59;4976658;28;20458;-80
2023/10/05 06:52:52;;;;;;;4.50;4.10;;;;;;;9.98;100.00;153921.53;4958849;28;20458;-80
2023/10/05 06:55:21;;;;;;;7.27;4.50;;;;;;;10.02;100.00;153933.16;4975176;28;20467;-80
2023/10/05 06:57:50;;;;;;;5.20;3.67;;;;;;;10.08;100.00;153947.41;4976827;28;20484;-80
2023/10/05 07:00:20;;;;;;;5.80;4.03;;;;;;;10.13;100.00;153960.41;4963473;28;20484;-80
2023/10/05 07:02:48;;;;;;;5.13;4.00;;;;;;;10.20;100.00;153978.50;4975246;28;20455;-80
2023/10/05 07:05:15;;;;;;;4.13;3.73;;;;;;;10.26;100.00;153995.34;4972146;28;20477;-80
2023/10/05 07:07:42;;;;;;;4.17;3.70;;;;;;;10.34;100.00;154016.06;4974001;28;20478;-80
2023/10/05 07:10:09;;;;;;;4.53;3.43;;;;;;;10.43;100.00;154036.78;4974118;28;20509;-80
2023/10/05 07:12:39;;;;;;;3.87;3.07;;;;;;;10.48;100.00;154051.03;4974941;28;20491;-80
2023/10/05 07:15:07;;;;;;;5.77;3.87;;;;;;;10.57;100.00;154073.00;4975518;28;20555;-80
2023/10/05 07:17:34;;;;;;;5.53;4.40;;;;;;;10.64;100.00;154091.16;4941139;28;20491;-80
2023/10/05 07:20:01;;;;;;;6.53;2.90;;;;;;;10.70;100.00;154106.66;4973887;28;20843;-80
2023/10/05 07:22:28;;;;;;;4.80;3.30;;;;;;;10.80;100.00;154132.59;4976284;28;20460;-80
2023/10/05 07:24:56;;;;;;;3.77;2.97;;;;;;;10.87;100.00;154150.72;4973247;28;20472;-80
2023/10/05 07:27:22;;;;;;;4.20;2.90;;;;;;;10.96;100.00;154175.31;4973534;28;20445;-80
2023/10/05 07:29:50;;;;;;;7.90;4.07;;;;;;;11.04;100.00;154193.47;4974574;28;20575;-80
2023/10/05 07:32:17;;;;;;;6.93;3.70;;;;;;;11.15;100.00;154221.94;4975975;28;20480;-80
2023/10/05 07:34:44;;;;;;;5.67;3.40;;;;;;;11.26;100.00;154250.44;4975528;28;20962;-80
2023/10/05 07:37:11;;;;;;;5.30;3.60;;;;;;;11.36;100.00;154276.34;4974938;28;20449;-80
2023/10/05 07:39:40;;;;;;;4.40;3.10;;;;;;;11.49;100.00;154310.06;4973357;28;20445;-81
2023/10/05 07:42:08;;;;;;;4.63;3.20;;;;;;;11.62;100.00;154343.75;4974585;28;20451;-80
2023/10/05 07:44:36;;;;;;;3.90;3.30;;;;;;;11.77;100.00;154382.66;4973955;28;20458;-80
2023/10/05 07:47:04;;;;;;;3.67;3.13;;;;;;;11.90;100.00;154416.38;4975120;28;20584;-81
2023/10/05 07:49:30;;;;;;;5.60;3.67;;;;;;;12.04;100.00;154451.38;4976353;28;20451;-81
2023/10/05 07:51:57;;;;;;;4.10;2.80;;;;;;;12.16;100.00;154482.47;4974629;28;20561;-80
2023/10/05 07:54:24;;;;;;;5.90;3.43;;;;;;;12.26;100.00;154507.13;4974427;28;20588;-80
2023/10/05 07:56:52;;;;;;;6.83;3.90;;;;;;;12.31;100.00;154520.09;4974300;28;20977;-80
2023/10/05 07:59:21;;;;;;;4.27;3.40;;;;;;;12.43;100.00;154551.19;4974927;28;20453;-79
2023/10/05 08:01:49;;;;;;;4.87;3.90;;;;;;;12.48;100.00;154565.44;4974864;28;20469;-80
2023/10/05 08:04:17;;;;;;;5.20;3.60;;;;;;;12.55;100.00;154582.34;4973963;28;20452;-78
2023/10/05 08:06:44;;;;;;;4.37;3.30;;;;;;;12.68;100.00;154616.03;4978969;28;20483;-80
2023/10/05 08:09:15;;;;;;;5.73;3.30;;;;;;;12.75;100.00;154634.19;4977670;28;20988;-78
2023/10/05 08:11:42;;;;;;;5.93;3.67;;;;;;;12.83;100.00;154654.94;4977597;28;20461;-78
2023/10/05 08:14:09;;;;;;;6.57;3.77;;;;;;;12.88;100.00;154667.91;4977141;28;20517;-78
2023/10/05 08:16:35;;;;;;;5.03;3.50;;;;;;;12.93;100.00;154680.88;4977889;28;20544;-80
2023/10/05 08:19:02;;;;;;;3.87;3.30;;;;;;;12.99;99.37;154696.47;4978213;28;20456;-78
2023/10/05 08:21:30;;;;;;;6.47;3.53;;;;;;;13.06;99.52;154714.59;4976906;28;20537;-78
2023/10/05 08:23:57;;;;;;;5.07;3.20;;;;;;;13.15;99.41;154736.72;4961269;28;20472;-78
2023/10/05 08:26:24;;;;;;;6.00;4.10;;;;;;;13.20;99.67;154751.00;4976212;28;20486;-78
2023/10/05 08:28:50;;;;;;;7.57;4.43;;;;;;;13.27;98.43;154769.13;4961093;28;20461;-78
2023/10/05 08:31:22;;;;;;;4.13;3.10;;;;;;;13.37;97.80;154795.09;4976958;28;20492;-78
2023/10/05 08:33:50;;;;;;;5.00;4.40;;;;;;;13.47;97.23;154818.47;4976558;28;20501;-79
2023/10/05 08:36:17;;;;;;;4.37;3.40;;;;;;;13.54;96.68;154837.91;4977467;28;20450;-78
2023/10/05 08:38:48;;;;;;;5.70;2.77;;;;;;;13.57;95.50;154844.41;4978463;28;20462;-78
2023/10/05 08:41:32;;;;;;;6.67;3.70;;;;;;;13.68;94.27;154872.97;4976472;28;20458;-78
2023/10/05 08:44:00;;;;;;;4.60;3.40;;;;;;;13.82;94.52;154909.34;4975781;28;20536;-80
2023/10/05 08:46:28;;;;;;;5.23;3.47;;;;;;;13.85;94.27;154918.38;4977308;28;20533;-80
2023/10/05 08:48:56;;;;;;;5.80;4.63;;;;;;;13.88;93.77;154924.88;4976203;28;20545;-79
2023/10/05 08:51:24;;;;;;;8.03;3.90;;;;;;;13.95;93.84;154943.09;4979140;28;20462;-80
2023/10/05 08:53:57;;;;;;;6.30;4.43;;;;;;;13.96;92.57;154946.94;4978220;28;20521;-80
2023/10/05 08:56:25;;;;;;;7.43;3.50;;;;;;;13.96;91.33;154946.94;4960471;28;20453;-79
2023/10/05 08:58:53;;;;;;;5.97;3.40;;;;;;;14.01;91.12;154959.94;4959842;28;20450;-78
2023/10/05 09:01:25;;;;;;;5.03;3.57;;;;;;;14.07;90.92;154974.22;4976967;28;20454;-80
2023/10/05 09:04:01;;;;;;;7.33;3.90;;;;;;;14.14;90.90;154991.13;4976136;28;20532;-78
2023/10/05 09:06:29;;;;;;;4.97;3.40;;;;;;;14.20;90.38;155006.66;4979496;28;20979;-78
2023/10/05 09:09:07;;;;;;;4.10;3.20;;;;;;;14.27;90.06;155024.88;4978431;28;20537;-78
2023/10/05 09:11:34;;;;;;;5.77;3.60;;;;;;;14.38;88.66;155054.75;4975068;28;20493;-78
2023/10/05 09:14:17;;;;;;;6.73;3.37;;;;;;;14.45;88.15;155071.69;4958408;28;20457;-78
2023/10/05 09:16:46;;;;;;;3.43;2.70;;;;;;;14.46;88.48;155075.53;4958323;28;20466;-78
2023/10/05 09:19:17;;;;;;;4.83;3.70;;;;;;;14.53;88.10;155093.72;4975259;28;20453;-78
2023/10/05 09:21:50;;;;;;;9.30;4.23;;;;;;;14.54;87.91;155095.03;4976474;28;20814;-78
2023/10/05 09:24:22;;;;;;;6.20;3.10;;;;;;;14.63;87.76;155119.72;4960816;28;20504;-78
2023/10/05 09:26:53;;;;;;;7.37;4.13;;;;;;;14.73;87.16;155144.38;4974482;28;21091;-78
2023/10/05 09:29:21;;;;;;;7.20;2.80;;;;;;;14.79;86.84;155160.00;4973686;28;20441;-78
2023/10/05 09:31:50;;;;;;;5.53;3.30;;;;;;;14.84;85.77;155171.66;4976241;28;20477;-78
2023/10/05 09:34:20;;;;;;;6.37;3.70;;;;;;;14.83;86.02;155169.06;4974975;28;20441;-78
2023/10/05 09:36:47;;;;;;;5.43;3.13;;;;;;;14.85;85.64;155174.28;4965768;28;20465;-78
2023/10/05 09:39:15;;;;;;;5.47;3.33;;;;;;;14.84;85.48;155171.66;4975388;28;20446;-79
2023/10/05 09:41:49;;;;;;;6.60;3.20;;;;;;;14.83;85.62;155169.06;4974186;28;20472;-79
2023/10/05 09:44:17;;;;;;;6.43;3.20;;;;;;;14.88;85.70;155182.09;4974301;28;20450;-79
2023/10/05 09:46:44;;;;;;;5.00;3.53;;;;;;;14.90;85.46;155187.28;4976268;28;20500;-79
2023/10/05 09:49:14;;;;;;;7.37;3.90;;;;;;;14.93;85.62;155195.06;4977826;28;20461;-80
2023/10/05 09:51:43;;;;;;;5.47;3.43;;;;;;;14.97;85.76;155205.44;4975060;28;20461;-80
2023/10/05 09:54:10;;;;;;;4.10;3.10;;;;;;;14.95;85.67;155200.25;4973849;28;20454;-79
2023/10/05 09:56:39;;;;;;;4.50;3.80;;;;;;;14.98;85.93;155208.06;4975706;28;21151;-80
2023/10/05 09:59:15;;;;;;;5.87;3.80;;;;;;;15.01;85.26;155215.88;4975415;28;20449;-80
2023/10/05 10:01:42;;;;;;;7.90;3.53;;;;;;;14.99;85.28;155211.94;4974674;28;20462;-80
2023/10/05 10:07:01;;;;;;;8.33;4.10;;;;;;;15.07;84.35;155231.41;4973510;28;20575;-80
2023/10/05 10:09:28;;;;;;;6.10;3.97;;;;;;;15.01;83.81;155215.88;4974844;28;20488;-80
2023/10/05 10:11:58;;;;;;;6.10;4.30;;;;;;;15.03;85.44;155221.03;4958582;28;20852;-80
2023/10/05 10:14:27;;;;;;;6.83;3.73;;;;;;;15.06;85.31;155230.09;4976297;28;20450;-80
2023/10/05 10:17:00;;;;;;;5.47;4.20;;;;;;;15.05;84.66;155226.22;4974590;28;20513;-79
2023/10/05 10:19:28;;;;;;;5.43;4.00;;;;;;;15.04;84.24;155223.63;4976073;28;20948;-79
2023/10/05 10:22:00;;;;;;;5.80;3.70;;;;;;;15.10;84.92;155239.22;4974139;28;20461;-79
2023/10/05 10:24:29;;;;;;;7.30;3.73;;;;;;;15.08;83.33;155235.34;4975290;28;20469;-79
2023/10/05 10:27:07;;;;;;;5.97;3.73;;;;;;;15.12;83.24;155244.41;4975526;28;20466;-80
2023/10/05 10:29:43;;;;;;;5.20;3.23;;;;;;;15.19;83.55;155263.94;4974944;28;20446;-79
2023/10/05 10:32:18;;;;;;;6.17;4.30;;;;;;;15.24;83.31;155275.63;4975570;28;21146;-79
2023/10/05 10:34:50;;;;;;;7.67;3.77;;;;;;;15.34;83.04;155301.59;4973491;28;20988;-79
2023/10/05 10:37:36;;;;;;;5.87;3.37;;;;;;;15.34;83.31;155301.59;4976478;28;20509;-79
2023/10/05 10:40:12;;;;;;;5.83;2.97;;;;;;;15.35;83.80;155304.22;4974440;28;20454;-79
2023/10/05 10:42:49;;;;;;;6.00;3.30;;;;;;;15.42;83.71;155322.41;4973958;28;20453;-79
2023/10/05 10:45:23;;;;;;;6.40;3.70;;;;;;;15.50;83.12;155341.94;4974599;28;20453;-79
2023/10/05 10:47:50;;;;;;;4.50;3.07;;;;;;;15.53;82.06;155351.06;4973664;28;20473;-79
2023/10/05 10:50:22;;;;;;;8.83;4.40;;;;;;;15.61;81.01;155370.53;4974039;28;20462;-79
2023/10/05 10:52:50;;;;;;;6.37;3.73;;;;;;;15.69;79.28;155392.66;4973002;28;20532;-79
2023/10/05 10:55:17;;;;;;;7.60;3.63;;;;;;;15.75;78.05;155406.97;4974699;28;20457;-80
2023/10/05 10:57:46;;;;;;;7.27;3.27;;;;;;;15.70;78.14;155395.22;4974920;28;20461;-78
2023/10/05 11:03:09;;;;;;;7.00;3.73;;;;;;;15.74;82.97;155405.66;4974086;28;21489;-79
2023/10/05 11:05:43;;;;;;;7.33;4.07;;;;;;;15.80;82.83;155419.94;4976186;28;20944;-80
2023/10/05 11:08:11;;;;;;;5.97;4.03;;;;;;;15.87;83.28;155438.13;4974359;28;20563;-80
2023/10/05 11:10:40;;;;;;;5.97;3.97;;;;;;;15.90;79.03;155444.63;4977565;28;20577;-79
2023/10/05 11:13:14;;;;;;;11.37;4.13;;;;;;;15.98;80.32;155465.44;4976225;28;20817;-80
2023/10/05 11:15:57;;;;;;;6.20;3.90;;;;;;;15.98;77.21;155465.44;4974890;28;20454;-79
2023/10/05 11:18:26;;;;;;;8.30;4.43;;;;;;;16.13;76.13;155504.44;4973888;28;20460;-79
2023/10/05 11:20:53;;;;;;;7.80;4.57;;;;;;;16.14;75.82;155507.06;4972409;28;20805;-79
2023/10/05 11:23:25;;;;;;;6.00;3.80;;;;;;;16.06;74.94;155486.25;4974351;28;20464;-78
2023/10/05 11:26:03;;;;;;;5.57;3.20;;;;;;;16.06;76.90;155486.25;4973634;28;20460;-79
2023/10/05 11:28:30;;;;;;;7.60;3.67;;;;;;;16.13;74.39;155505.75;4975102;28;20445;-78
2023/10/05 11:30:56;;;;;;;4.07;3.10;;;;;;;16.20;73.39;155523.94;4977642;28;20852;-79
2023/10/05 11:33:23;;;;;;;4.37;3.60;;;;;;;16.23;75.52;155530.47;4975590;28;20549;-80
2023/10/05 11:35:52;;;;;;;4.60;3.00;;;;;;;16.22;72.33;155527.84;4974765;28;20465;-80
2023/10/05 11:38:20;;;;;;;7.30;3.47;;;;;;;16.26;72.21;155539.56;4973059;28;20445;-80
2023/10/05 11:40:53;;;;;;;5.83;3.40;;;;;;;16.27;72.87;155540.84;4975349;28;20581;-81
2023/10/05 11:43:20;;;;;;;5.90;3.40;;;;;;;16.32;76.34;155553.84;4976712;28;20917;-81